sensor_id;sensor_type;location;lat;lon;timestamp;temperature;humidity
28835;DHT22;15969;51.536;11.884;2023-04-03T00:00:56;2.30;99.90
28835;DHT22;15969;51.536;11.884;2023-04-03T00:03:23;2.30;99.90
28835;DHT22;15969;51.536;11.884;2023-04-03T00:05:49;2.30;99.90
28835;DHT22;15969;51.536;11.884;2023-04-03T00:08:15;2.30;99.90
28835;DHT22;15969;51.536;11.884;2023-04-03T00:10:41;2.30;99.90
28835;DHT22;15969;51.536;11.884;2023-04-03T00:13:07;2.30;99.90
28835;DHT22;15969;51.536;11.884;2023-04-03T00:15:34;2.30;99.90
28835;DHT22;15969;51.536;11.884;2023-04-03T00:18:00;2.30;99.90
28835;DHT22;15969;51.536;11.884;2023-04-03T00:20:26;2.20;99.90
28835;DHT22;15969;51.536;11.884;2023-04-03T00:22:52;2.20;99.90
28835;DHT22;15969;51.536;11.884;2023-04-03T00:25:19;2.10;99.90
28835;DHT22;15969;51.536;11.884;2023-04-03T00:27:45;2.20;99.90
28835;DHT22;15969;51.536;11.884;2023-04-03T00:30:14;2.20;99.90
28835;DHT22;15969;51.536;11.884;2023-04-03T00:32:41;2.10;99.90
28835;DHT22;15969;51.536;11.884;2023-04-03T00:35:07;2.00;99.90
28835;DHT22;15969;51.536;11.884;2023-04-03T00:37:33;2.10;99.90
28835;DHT22;15969;51.536;11.884;2023-04-03T00:39:58;2.10;99.90
28835;DHT22;15969;51.536;11.884;2023-04-03T00:42:25;2.10;99.90
28835;DHT22;15969;51.536;11.884;2023-04-03T00:47:22;2.00;99.90
28835;DHT22;15969;51.536;11.884;2023-04-03T00:49:49;1.90;99.90
28835;DHT22;15969;51.536;11.884;2023-04-03T00:52:18;2.00;99.90
28835;DHT22;15969;51.536;11.884;2023-04-03T00:54:47;2.00;99.90
28835;DHT22;15969;51.536;11.884;2023-04-03T00:57:15;1.90;99.90
28835;DHT22;15969;51.536;11.884;2023-04-03T00:59:46;2.00;99.90
28835;DHT22;15969;51.536;11.884;2023-04-03T01:02:15;1.90;99.90
28835;DHT22;15969;51.536;11.884;2023-04-03T01:04:43;2.00;99.90
28835;DHT22;15969;51.536;11.884;2023-04-03T01:07:15;1.90;99.90
28835;DHT22;15969;51.536;11.884;2023-04-03T01:09:43;1.80;99.90
28835;DHT22;15969;51.536;11.884;2023-04-03T01:14:44;1.80;99.90
28835;DHT22;15969;51.536;11.884;2023-04-03T01:20:24;1.70;99.90
28835;DHT22;15969;51.536;11.884;2023-04-03T01:25:51;1.60;99.90
28835;DHT22;15969;51.536;11.884;2023-04-03T01:28:25;1.60;99.90
28835;DHT22;15969;51.536;11.884;2023-04-03T01:31:28;1.50;99.90
28835;DHT22;15969;51.536;11.884;2023-04-03T01:34:01;1.60;99.90
28835;DHT22;15969;51.536;11.884;2023-04-03T01:36:29;1.40;99.90
28835;DHT22;15969;51.536;11.884;2023-04-03T01:38:56;1.30;99.90
28835;DHT22;15969;51.536;11.884;2023-04-03T01:41:24;1.30;99.90
28835;DHT22;15969;51.536;11.884;2023-04-03T01:43:51;1.30;99.90
28835;DHT22;15969;51.536;11.884;2023-04-03T01:46:17;1.30;99.90
28835;DHT22;15969;51.536;11.884;2023-04-03T01:48:44;1.30;99.90
28835;DHT22;15969;51.536;11.884;2023-04-03T01:51:10;1.30;99.90
28835;DHT22;15969;51.536;11.884;2023-04-03T01:53:36;1.20;99.90
28835;DHT22;15969;51.536;11.884;2023-04-03T01:56:02;1.30;99.90
28835;DHT22;15969;51.536;11.884;2023-04-03T01:58:28;1.30;99.90
28835;DHT22;15969;51.536;11.884;2023-04-03T02:00:53;1.30;99.90
28835;DHT22;15969;51.536;11.884;2023-04-03T02:03:19;1.30;99.90
28835;DHT22;15969;51.536;11.884;2023-04-03T02:05:45;1.20;99.90
28835;DHT22;15969;51.536;11.884;2023-04-03T02:08:11;1.10;99.90
28835;DHT22;15969;51.536;11.884;2023-04-03T02:10:38;1.10;99.90
28835;DHT22;15969;51.536;11.884;2023-04-03T02:13:04;1.10;99.90
28835;DHT22;15969;51.536;11.884;2023-04-03T02:15:30;1.10;99.90
28835;DHT22;15969;51.536;11.884;2023-04-03T02:17:55;1.00;99.90
28835;DHT22;15969;51.536;11.884;2023-04-03T02:20:21;0.90;99.90
28835;DHT22;15969;51.536;11.884;2023-04-03T02:22:47;0.90;99.90
28835;DHT22;15969;51.536;11.884;2023-04-03T02:25:13;0.90;99.90
28835;DHT22;15969;51.536;11.884;2023-04-03T02:27:39;0.90;99.90
28835;DHT22;15969;51.536;11.884;2023-04-03T02:30:05;0.90;99.90
28835;DHT22;15969;51.536;11.884;2023-04-03T02:32:31;0.80;99.90
28835;DHT22;15969;51.536;11.884;2023-04-03T02:34:57;0.70;99.90
28835;DHT22;15969;51.536;11.884;2023-04-03T02:37:23;0.70;99.90
28835;DHT22;15969;51.536;11.884;2023-04-03T02:39:48;0.60;99.90
28835;DHT22;15969;51.536;11.884;2023-04-03T02:42:14;0.60;99.90
28835;DHT22;15969;51.536;11.884;2023-04-03T02:44:40;0.60;99.90
28835;DHT22;15969;51.536;11.884;2023-04-03T02:47:05;0.60;99.90
28835;DHT22;15969;51.536;11.884;2023-04-03T02:49:31;0.50;99.90
28835;DHT22;15969;51.536;11.884;2023-04-03T02:51:57;0.60;99.90
28835;DHT22;15969;51.536;11.884;2023-04-03T02:54:23;0.60;99.90
28835;DHT22;15969;51.536;11.884;2023-04-03T02:56:49;0.50;99.90
28835;DHT22;15969;51.536;11.884;2023-04-03T02:59:15;0.40;99.90
28835;DHT22;15969;51.536;11.884;2023-04-03T03:01:41;0.40;99.90
28835;DHT22;15969;51.536;11.884;2023-04-03T03:04:06;0.40;99.90
28835;DHT22;15969;51.536;11.884;2023-04-03T03:06:32;0.40;99.90
28835;DHT22;15969;51.536;11.884;2023-04-03T03:08:58;0.30;99.90
28835;DHT22;15969;51.536;11.884;2023-04-03T03:11:24;0.30;99.90
28835;DHT22;15969;51.536;11.884;2023-04-03T03:13:50;0.30;99.90
28835;DHT22;15969;51.536;11.884;2023-04-03T03:16:16;0.40;99.90
28835;DHT22;15969;51.536;11.884;2023-04-03T03:18:41;0.40;99.90
28835;DHT22;15969;51.536;11.884;2023-04-03T03:21:08;0.40;99.90
28835;DHT22;15969;51.536;11.884;2023-04-03T03:23:34;0.40;99.90
28835;DHT22;15969;51.536;11.884;2023-04-03T03:26:03;0.40;99.90
28835;DHT22;15969;51.536;11.884;2023-04-03T03:28:30;0.30;99.90
28835;DHT22;15969;51.536;11.884;2023-04-03T03:30:57;0.20;99.90
28835;DHT22;15969;51.536;11.884;2023-04-03T03:33:24;0.20;99.90
28835;DHT22;15969;51.536;11.884;2023-04-03T03:35:52;0.20;99.90
28835;DHT22;15969;51.536;11.884;2023-04-03T03:38:18;0.20;99.90
28835;DHT22;15969;51.536;11.884;2023-04-03T03:40:44;0.10;99.90
28835;DHT22;15969;51.536;11.884;2023-04-03T03:43:10;0.10;99.90
28835;DHT22;15969;51.536;11.884;2023-04-03T03:45:35;0.00;99.90
28835;DHT22;15969;51.536;11.884;2023-04-03T03:48:02;0.00;99.90
28835;DHT22;15969;51.536;11.884;2023-04-03T03:50:28;0.10;99.90
28835;DHT22;15969;51.536;11.884;2023-04-03T03:52:54;0.20;99.90
28835;DHT22;15969;51.536;11.884;2023-04-03T03:55:20;0.20;99.90
28835;DHT22;15969;51.536;11.884;2023-04-03T03:57:46;0.10;99.90
28835;DHT22;15969;51.536;11.884;2023-04-03T04:00:11;0.10;99.90
28835;DHT22;15969;51.536;11.884;2023-04-03T04:02:37;0.10;99.90
28835;DHT22;15969;51.536;11.884;2023-04-03T04:05:03;0.10;99.90
28835;DHT22;15969;51.536;11.884;2023-04-03T04:07:29;0.10;99.90
28835;DHT22;15969;51.536;11.884;2023-04-03T04:09:55;0.00;99.90
28835;DHT22;15969;51.536;11.884;2023-04-03T04:12:21;0.00;99.90
28835;DHT22;15969;51.536;11.884;2023-04-03T04:14:47;-0.10;99.90
28835;DHT22;15969;51.536;11.884;2023-04-03T04:17:13;0.00;99.90
28835;DHT22;15969;51.536;11.884;2023-04-03T04:19:39;0.00;99.90
28835;DHT22;15969;51.536;11.884;2023-04-03T04:22:05;0.00;99.90
28835;DHT22;15969;51.536;11.884;2023-04-03T04:24:31;0.00;99.90
28835;DHT22;15969;51.536;11.884;2023-04-03T04:26:57;0.10;99.90
28835;DHT22;15969;51.536;11.884;2023-04-03T04:29:23;0.20;99.90
28835;DHT22;15969;51.536;11.884;2023-04-03T04:31:48;0.30;99.90
28835;DHT22;15969;51.536;11.884;2023-04-03T04:34:14;0.30;99.90
28835;DHT22;15969;51.536;11.884;2023-04-03T04:36:40;0.40;99.90
28835;DHT22;15969;51.536;11.884;2023-04-03T04:39:06;0.40;99.90
28835;DHT22;15969;51.536;11.884;2023-04-03T04:41:32;0.30;99.90
28835;DHT22;15969;51.536;11.884;2023-04-03T04:43:58;0.40;99.90
28835;DHT22;15969;51.536;11.884;2023-04-03T04:46:23;0.30;99.90
28835;DHT22;15969;51.536;11.884;2023-04-03T04:48:49;0.30;99.90
28835;DHT22;15969;51.536;11.884;2023-04-03T04:51:15;0.30;99.90
28835;DHT22;15969;51.536;11.884;2023-04-03T04:53:41;0.30;99.90
28835;DHT22;15969;51.536;11.884;2023-04-03T04:56:08;0.20;99.90
28835;DHT22;15969;51.536;11.884;2023-04-03T04:58:33;0.30;99.90
28835;DHT22;15969;51.536;11.884;2023-04-03T05:01:04;0.30;99.90
28835;DHT22;15969;51.536;11.884;2023-04-03T05:03:31;0.30;99.90
28835;DHT22;15969;51.536;11.884;2023-04-03T05:05:57;0.40;99.90
28835;DHT22;15969;51.536;11.884;2023-04-03T05:08:23;0.40;99.90
28835;DHT22;15969;51.536;11.884;2023-04-03T05:10:49;0.40;99.90
28835;DHT22;15969;51.536;11.884;2023-04-03T05:13:15;0.40;99.90
28835;DHT22;15969;51.536;11.884;2023-04-03T05:15:41;0.30;99.90
28835;DHT22;15969;51.536;11.884;2023-04-03T05:18:06;0.20;99.90
28835;DHT22;15969;51.536;11.884;2023-04-03T05:20:33;0.20;99.90
28835;DHT22;15969;51.536;11.884;2023-04-03T05:22:59;0.30;99.90
28835;DHT22;15969;51.536;11.884;2023-04-03T05:25:25;0.30;99.90
28835;DHT22;15969;51.536;11.884;2023-04-03T05:27:51;0.40;99.90
28835;DHT22;15969;51.536;11.884;2023-04-03T05:30:17;0.40;99.90
28835;DHT22;15969;51.536;11.884;2023-04-03T05:32:43;0.30;99.90
28835;DHT22;15969;51.536;11.884;2023-04-03T05:35:09;0.60;99.90
28835;DHT22;15969;51.536;11.884;2023-04-03T05:37:35;0.50;99.90
28835;DHT22;15969;51.536;11.884;2023-04-03T05:40:02;0.60;99.90
28835;DHT22;15969;51.536;11.884;2023-04-03T05:42:29;0.60;99.90
28835;DHT22;15969;51.536;11.884;2023-04-03T05:44:55;0.60;99.90
28835;DHT22;15969;51.536;11.884;2023-04-03T05:47:20;0.60;99.90
28835;DHT22;15969;51.536;11.884;2023-04-03T05:49:46;0.80;99.90
28835;DHT22;15969;51.536;11.884;2023-04-03T05:52:25;0.80;99.90
28835;DHT22;15969;51.536;11.884;2023-04-03T05:54:52;0.90;99.90
28835;DHT22;15969;51.536;11.884;2023-04-03T05:57:18;0.90;99.90
28835;DHT22;15969;51.536;11.884;2023-04-03T05:59:45;0.90;99.90
28835;DHT22;15969;51.536;11.884;2023-04-03T06:02:14;0.90;99.90
28835;DHT22;15969;51.536;11.884;2023-04-03T06:04:42;1.00;99.90
28835;DHT22;15969;51.536;11.884;2023-04-03T06:07:11;0.90;99.90
28835;DHT22;15969;51.536;11.884;2023-04-03T06:09:39;1.00;99.90
28835;DHT22;15969;51.536;11.884;2023-04-03T06:12:05;1.00;99.90
28835;DHT22;15969;51.536;11.884;2023-04-03T06:14:30;1.10;99.90
28835;DHT22;15969;51.536;11.884;2023-04-03T06:16:56;1.10;99.90
28835;DHT22;15969;51.536;11.884;2023-04-03T06:19:22;1.20;99.90
28835;DHT22;15969;51.536;11.884;2023-04-03T06:21:48;1.30;99.90
28835;DHT22;15969;51.536;11.884;2023-04-03T06:24:16;1.30;99.90
28835;DHT22;15969;51.536;11.884;2023-04-03T06:26:42;1.30;99.90
28835;DHT22;15969;51.536;11.884;2023-04-03T06:29:09;1.30;99.90
28835;DHT22;15969;51.536;11.884;2023-04-03T06:31:34;1.30;99.90
28835;DHT22;15969;51.536;11.884;2023-04-03T06:34:02;1.40;99.90
28835;DHT22;15969;51.536;11.884;2023-04-03T06:36:29;1.60;99.90
28835;DHT22;15969;51.536;11.884;2023-04-03T06:38:55;1.60;99.90
28835;DHT22;15969;51.536;11.884;2023-04-03T06:41:21;1.60;99.90
28835;DHT22;15969;51.536;11.884;2023-04-03T06:43:47;1.70;99.90
28835;DHT22;15969;51.536;11.884;2023-04-03T06:46:17;1.80;99.90
28835;DHT22;15969;51.536;11.884;2023-04-03T06:48:44;1.90;99.90
28835;DHT22;15969;51.536;11.884;2023-04-03T06:51:24;2.00;99.90
28835;DHT22;15969;51.536;11.884;2023-04-03T06:53:53;2.00;99.90
28835;DHT22;15969;51.536;11.884;2023-04-03T06:56:21;2.10;99.90
28835;DHT22;15969;51.536;11.884;2023-04-03T06:58:47;2.10;99.90
28835;DHT22;15969;51.536;11.884;2023-04-03T07:01:15;2.20;99.90
28835;DHT22;15969;51.536;11.884;2023-04-03T07:03:42;2.30;99.90
28835;DHT22;15969;51.536;11.884;2023-04-03T07:06:11;2.40;99.90
28835;DHT22;15969;51.536;11.884;2023-04-03T07:08:38;2.50;99.90
28835;DHT22;15969;51.536;11.884;2023-04-03T07:11:04;2.50;99.90
28835;DHT22;15969;51.536;11.884;2023-04-03T07:13:30;2.60;99.90
28835;DHT22;15969;51.536;11.884;2023-04-03T07:15:56;2.70;99.90
28835;DHT22;15969;51.536;11.884;2023-04-03T07:18:22;2.80;99.90
28835;DHT22;15969;51.536;11.884;2023-04-03T07:20:48;2.90;99.90
28835;DHT22;15969;51.536;11.884;2023-04-03T07:23:14;2.90;99.90
28835;DHT22;15969;51.536;11.884;2023-04-03T07:25:44;3.00;99.90
28835;DHT22;15969;51.536;11.884;2023-04-03T07:28:10;3.10;99.90
28835;DHT22;15969;51.536;11.884;2023-04-03T07:30:44;3.10;99.90
28835;DHT22;15969;51.536;11.884;2023-04-03T07:33:11;3.20;99.90
28835;DHT22;15969;51.536;11.884;2023-04-03T07:35:38;3.30;99.90
28835;DHT22;15969;51.536;11.884;2023-04-03T07:38:04;3.30;99.90
28835;DHT22;15969;51.536;11.884;2023-04-03T07:40:31;3.40;99.90
28835;DHT22;15969;51.536;11.884;2023-04-03T07:42:56;3.50;99.90
28835;DHT22;15969;51.536;11.884;2023-04-03T07:45:22;3.50;99.90
28835;DHT22;15969;51.536;11.884;2023-04-03T07:47:49;3.50;99.90
28835;DHT22;15969;51.536;11.884;2023-04-03T07:50:15;3.70;99.90
28835;DHT22;15969;51.536;11.884;2023-04-03T07:52:41;3.80;99.90
28835;DHT22;15969;51.536;11.884;2023-04-03T07:55:08;3.90;99.90
28835;DHT22;15969;51.536;11.884;2023-04-03T07:57:33;4.10;99.90
28835;DHT22;15969;51.536;11.884;2023-04-03T07:59:59;4.30;99.90
28835;DHT22;15969;51.536;11.884;2023-04-03T08:02:25;4.30;99.90
28835;DHT22;15969;51.536;11.884;2023-04-03T08:04:50;4.40;99.90
28835;DHT22;15969;51.536;11.884;2023-04-03T08:07:16;4.50;99.90
28835;DHT22;15969;51.536;11.884;2023-04-03T08:09:42;4.60;99.90
28835;DHT22;15969;51.536;11.884;2023-04-03T08:12:07;4.60;99.90
28835;DHT22;15969;51.536;11.884;2023-04-03T08:14:33;4.60;99.90
28835;DHT22;15969;51.536;11.884;2023-04-03T08:17:02;4.60;99.90
28835;DHT22;15969;51.536;11.884;2023-04-03T08:19:29;4.80;99.90
28835;DHT22;15969;51.536;11.884;2023-04-03T08:21:56;4.80;99.90
28835;DHT22;15969;51.536;11.884;2023-04-03T08:24:24;4.90;99.90
28835;DHT22;15969;51.536;11.884;2023-04-03T08:26:50;5.00;99.90
28835;DHT22;15969;51.536;11.884;2023-04-03T08:29:15;4.90;99.90
28835;DHT22;15969;51.536;11.884;2023-04-03T08:31:41;5.00;99.90
28835;DHT22;15969;51.536;11.884;2023-04-03T08:34:08;5.10;99.90
28835;DHT22;15969;51.536;11.884;2023-04-03T08:36:33;5.20;99.90
28835;DHT22;15969;51.536;11.884;2023-04-03T08:38:59;5.20;99.90
28835;DHT22;15969;51.536;11.884;2023-04-03T08:47:11;5.20;99.90
28835;DHT22;15969;51.536;11.884;2023-04-03T08:49:59;5.10;99.90
28835;DHT22;15969;51.536;11.884;2023-04-03T08:52:34;5.10;99.90
28835;DHT22;15969;51.536;11.884;2023-04-03T08:55:13;5.10;99.90
28835;DHT22;15969;51.536;11.884;2023-04-03T08:57:47;5.00;99.90
28835;DHT22;15969;51.536;11.884;2023-04-03T09:00:18;4.90;99.90
28835;DHT22;15969;51.536;11.884;2023-04-03T09:03:03;4.90;99.90
28835;DHT22;15969;51.536;11.884;2023-04-03T09:05:35;4.90;99.90
28835;DHT22;15969;51.536;11.884;2023-04-03T09:08:21;5.10;99.90
28835;DHT22;15969;51.536;11.884;2023-04-03T09:11:16;5.20;99.90
28835;DHT22;15969;51.536;11.884;2023-04-03T09:13:57;5.30;99.90
28835;DHT22;15969;51.536;11.884;2023-04-03T09:16:32;5.20;98.90
28835;DHT22;15969;51.536;11.884;2023-04-03T09:22:03;5.30;98.50
28835;DHT22;15969;51.536;11.884;2023-04-03T09:25:05;5.40;97.50
28835;DHT22;15969;51.536;11.884;2023-04-03T09:27:39;5.70;97.30
28835;DHT22;15969;51.536;11.884;2023-04-03T09:30:06;5.80;96.80
28835;DHT22;15969;51.536;11.884;2023-04-03T09:32:35;6.00;97.70
28835;DHT22;15969;51.536;11.884;2023-04-03T09:40:39;6.10;93.60
28835;DHT22;15969;51.536;11.884;2023-04-03T09:43:51;6.00;93.30
28835;DHT22;15969;51.536;11.884;2023-04-03T09:46:32;6.10;95.50
28835;DHT22;15969;51.536;11.884;2023-04-03T09:49:00;6.30;95.20
28835;DHT22;15969;51.536;11.884;2023-04-03T09:51:28;6.10;93.00
28835;DHT22;15969;51.536;11.884;2023-04-03T09:53:55;6.10;92.60
28835;DHT22;15969;51.536;11.884;2023-04-03T09:56:23;6.20;93.00
28835;DHT22;15969;51.536;11.884;2023-04-03T10:04:15;6.60;93.00
28835;DHT22;15969;51.536;11.884;2023-04-03T10:06:51;6.60;91.70
28835;DHT22;15969;51.536;11.884;2023-04-03T10:09:22;6.60;92.10
28835;DHT22;15969;51.536;11.884;2023-04-03T10:12:07;6.60;92.40
28835;DHT22;15969;51.536;11.884;2023-04-03T10:14:58;6.60;91.90
28835;DHT22;15969;51.536;11.884;2023-04-03T10:18:00;6.30;89.90
28835;DHT22;15969;51.536;11.884;2023-04-03T10:20:39;6.20;91.00
28835;DHT22;15969;51.536;11.884;2023-04-03T10:29:13;6.60;91.10
28835;DHT22;15969;51.536;11.884;2023-04-03T10:32:22;6.70;90.50
28835;DHT22;15969;51.536;11.884;2023-04-03T10:38:15;6.90;91.20
28835;DHT22;15969;51.536;11.884;2023-04-03T10:41:07;7.20;92.50
28835;DHT22;15969;51.536;11.884;2023-04-03T10:44:02;7.40;90.80
28835;DHT22;15969;51.536;11.884;2023-04-03T10:46:43;7.80;91.70
28835;DHT22;15969;51.536;11.884;2023-04-03T10:49:34;7.90;90.70
28835;DHT22;15969;51.536;11.884;2023-04-03T10:52:20;8.10;89.30
28835;DHT22;15969;51.536;11.884;2023-04-03T10:57:40;8.20;90.00
28835;DHT22;15969;51.536;11.884;2023-04-03T11:00:14;8.30;91.00
28835;DHT22;15969;51.536;11.884;2023-04-03T11:02:58;8.30;88.60
28835;DHT22;15969;51.536;11.884;2023-04-03T11:05:45;8.10;88.10
28835;DHT22;15969;51.536;11.884;2023-04-03T11:08:16;8.00;89.00
28835;DHT22;15969;51.536;11.884;2023-04-03T11:10:46;7.70;89.00
28835;DHT22;15969;51.536;11.884;2023-04-03T11:13:24;7.70;90.30
28835;DHT22;15969;51.536;11.884;2023-04-03T11:15:54;7.60;88.10
28835;DHT22;15969;51.536;11.884;2023-04-03T11:18:43;7.50;87.20
28835;DHT22;15969;51.536;11.884;2023-04-03T11:21:26;7.50;86.20
28835;DHT22;15969;51.536;11.884;2023-04-03T11:23:57;7.60;85.80
28835;DHT22;15969;51.536;11.884;2023-04-03T11:26:27;7.90;86.20
28835;DHT22;15969;51.536;11.884;2023-04-03T11:29:00;8.10;86.20
28835;DHT22;15969;51.536;11.884;2023-04-03T11:34:37;8.20;84.40
28835;DHT22;15969;51.536;11.884;2023-04-03T11:37:13;8.00;83.00
28835;DHT22;15969;51.536;11.884;2023-04-03T11:39:53;8.00;84.20
28835;DHT22;15969;51.536;11.884;2023-04-03T11:42:47;8.10;85.70
28835;DHT22;15969;51.536;11.884;2023-04-03T11:47:58;7.90;84.10
28835;DHT22;15969;51.536;11.884;2023-04-03T11:50:45;7.80;82.80
28835;DHT22;15969;51.536;11.884;2023-04-03T11:55:54;7.70;85.20
28835;DHT22;15969;51.536;11.884;2023-04-03T11:58:26;7.80;85.70
28835;DHT22;15969;51.536;11.884;2023-04-03T12:00:54;7.90;85.50
28835;DHT22;15969;51.536;11.884;2023-04-03T12:03:33;7.90;84.80
28835;DHT22;15969;51.536;11.884;2023-04-03T12:08:50;8.40;82.20
28835;DHT22;15969;51.536;11.884;2023-04-03T12:11:29;8.40;83.50
28835;DHT22;15969;51.536;11.884;2023-04-03T12:16:22;8.20;83.70
28835;DHT22;15969;51.536;11.884;2023-04-03T12:26:50;8.10;85.10
28835;DHT22;15969;51.536;11.884;2023-04-03T12:34:50;8.60;80.10
28835;DHT22;15969;51.536;11.884;2023-04-03T12:44:06;9.30;77.90
28835;DHT22;15969;51.536;11.884;2023-04-03T12:46:45;9.50;78.80
28835;DHT22;15969;51.536;11.884;2023-04-03T12:51:54;10.00;76.00
28835;DHT22;15969;51.536;11.884;2023-04-03T12:54:26;10.10;77.20
28835;DHT22;15969;51.536;11.884;2023-04-03T12:57:20;10.30;76.70
28835;DHT22;15969;51.536;11.884;2023-04-03T12:59:53;10.10;75.90
28835;DHT22;15969;51.536;11.884;2023-04-03T13:02:32;9.90;75.80
28835;DHT22;15969;51.536;11.884;2023-04-03T13:05:08;9.90;76.60
28835;DHT22;15969;51.536;11.884;2023-04-03T13:07:37;10.00;74.40
28835;DHT22;15969;51.536;11.884;2023-04-03T13:12:55;10.00;73.70
28835;DHT22;15969;51.536;11.884;2023-04-03T13:15:30;9.80;76.50
28835;DHT22;15969;51.536;11.884;2023-04-03T13:18:22;9.60;75.00
28835;DHT22;15969;51.536;11.884;2023-04-03T13:20:49;9.30;77.20
28835;DHT22;15969;51.536;11.884;2023-04-03T13:23:17;9.30;79.80
28835;DHT22;15969;51.536;11.884;2023-04-03T13:25:46;9.30;76.80
28835;DHT22;15969;51.536;11.884;2023-04-03T13:28:17;9.20;77.10
28835;DHT22;15969;51.536;11.884;2023-04-03T13:33:56;8.80;78.50
28835;DHT22;15969;51.536;11.884;2023-04-03T13:36:37;8.60;78.70
28835;DHT22;15969;51.536;11.884;2023-04-03T13:39:30;8.50;77.10
28835;DHT22;15969;51.536;11.884;2023-04-03T13:42:14;8.40;78.00
28835;DHT22;15969;51.536;11.884;2023-04-03T13:44:41;8.30;77.30
28835;DHT22;15969;51.536;11.884;2023-04-03T13:49:40;8.00;79.50
28835;DHT22;15969;51.536;11.884;2023-04-03T13:52:38;8.00;78.40
28835;DHT22;15969;51.536;11.884;2023-04-03T13:58:03;7.90;80.00
28835;DHT22;15969;51.536;11.884;2023-04-03T14:00:50;7.90;79.60
28835;DHT22;15969;51.536;11.884;2023-04-03T14:06:19;8.00;78.10
28835;DHT22;15969;51.536;11.884;2023-04-03T14:08:45;8.00;78.10
28835;DHT22;15969;51.536;11.884;2023-04-03T14:11:17;8.20;76.90
28835;DHT22;15969;51.536;11.884;2023-04-03T14:13:50;8.60;77.20
28835;DHT22;15969;51.536;11.884;2023-04-03T14:16:20;9.00;76.60
28835;DHT22;15969;51.536;11.884;2023-04-03T14:18:47;9.50;77.40
28835;DHT22;15969;51.536;11.884;2023-04-03T14:21:17;9.60;75.50
28835;DHT22;15969;51.536;11.884;2023-04-03T14:23:44;9.50;73.80
28835;DHT22;15969;51.536;11.884;2023-04-03T14:26:16;9.50;75.20
28835;DHT22;15969;51.536;11.884;2023-04-03T14:28:45;9.30;74.00
28835;DHT22;15969;51.536;11.884;2023-04-03T14:31:13;9.20;76.20
28835;DHT22;15969;51.536;11.884;2023-04-03T14:33:40;8.90;73.80
28835;DHT22;15969;51.536;11.884;2023-04-03T14:36:17;8.60;76.30
28835;DHT22;15969;51.536;11.884;2023-04-03T14:38:45;8.60;77.80
28835;DHT22;15969;51.536;11.884;2023-04-03T14:41:16;8.50;78.30
28835;DHT22;15969;51.536;11.884;2023-04-03T14:43:44;8.50;74.50
28835;DHT22;15969;51.536;11.884;2023-04-03T14:46:14;8.50;76.40
28835;DHT22;15969;51.536;11.884;2023-04-03T14:48:41;8.40;78.50
28835;DHT22;15969;51.536;11.884;2023-04-03T14:51:10;8.50;79.50
28835;DHT22;15969;51.536;11.884;2023-04-03T14:53:37;8.50;78.00
28835;DHT22;15969;51.536;11.884;2023-04-03T14:56:10;8.30;80.40
28835;DHT22;15969;51.536;11.884;2023-04-03T14:58:37;8.10;79.90
28835;DHT22;15969;51.536;11.884;2023-04-03T15:01:03;8.20;80.40
28835;DHT22;15969;51.536;11.884;2023-04-03T15:03:28;8.30;80.50
28835;DHT22;15969;51.536;11.884;2023-04-03T15:05:54;8.20;81.10
28835;DHT22;15969;51.536;11.884;2023-04-03T15:08:25;8.20;79.60
28835;DHT22;15969;51.536;11.884;2023-04-03T15:10:52;8.20;79.80
28835;DHT22;15969;51.536;11.884;2023-04-03T15:13:19;8.20;79.10
28835;DHT22;15969;51.536;11.884;2023-04-03T15:15:46;8.10;80.60
28835;DHT22;15969;51.536;11.884;2023-04-03T15:18:17;8.10;80.60
28835;DHT22;15969;51.536;11.884;2023-04-03T15:20:45;8.30;80.80
28835;DHT22;15969;51.536;11.884;2023-04-03T15:23:12;8.30;79.80
28835;DHT22;15969;51.536;11.884;2023-04-03T15:25:44;8.40;78.50
28835;DHT22;15969;51.536;11.884;2023-04-03T15:28:39;8.50;77.50
28835;DHT22;15969;51.536;11.884;2023-04-03T15:31:07;8.60;77.90
28835;DHT22;15969;51.536;11.884;2023-04-03T15:33:33;8.80;79.80
28835;DHT22;15969;51.536;11.884;2023-04-03T15:36:00;8.70;77.10
28835;DHT22;15969;51.536;11.884;2023-04-03T15:38:26;8.50;74.80
28835;DHT22;15969;51.536;11.884;2023-04-03T15:40:51;8.40;73.90
28835;DHT22;15969;51.536;11.884;2023-04-03T15:43:17;8.40;76.00
28835;DHT22;15969;51.536;11.884;2023-04-03T15:45:44;8.20;76.60
28835;DHT22;15969;51.536;11.884;2023-04-03T15:48:11;8.10;75.50
28835;DHT22;15969;51.536;11.884;2023-04-03T15:50:38;7.90;73.50
28835;DHT22;15969;51.536;11.884;2023-04-03T15:53:03;7.80;75.90
28835;DHT22;15969;51.536;11.884;2023-04-03T15:55:32;7.60;76.90
28835;DHT22;15969;51.536;11.884;2023-04-03T15:57:59;7.50;77.80
28835;DHT22;15969;51.536;11.884;2023-04-03T16:00:26;7.50;77.00
28835;DHT22;15969;51.536;11.884;2023-04-03T16:02:55;7.50;78.30
28835;DHT22;15969;51.536;11.884;2023-04-03T16:05:29;7.60;78.00
28835;DHT22;15969;51.536;11.884;2023-04-03T16:07:55;7.60;79.10
28835;DHT22;15969;51.536;11.884;2023-04-03T16:10:21;7.60;80.80
28835;DHT22;15969;51.536;11.884;2023-04-03T16:12:47;7.70;81.10
28835;DHT22;15969;51.536;11.884;2023-04-03T16:15:12;7.70;81.40
28835;DHT22;15969;51.536;11.884;2023-04-03T16:17:39;7.70;81.50
28835;DHT22;15969;51.536;11.884;2023-04-03T16:20:10;7.60;81.60
28835;DHT22;15969;51.536;11.884;2023-04-03T16:22:37;7.40;80.10
28835;DHT22;15969;51.536;11.884;2023-04-03T16:25:04;7.30;80.70
28835;DHT22;15969;51.536;11.884;2023-04-03T16:27:31;7.40;80.80
28835;DHT22;15969;51.536;11.884;2023-04-03T16:29:57;7.40;80.80
28835;DHT22;15969;51.536;11.884;2023-04-03T16:32:25;7.40;80.90
28835;DHT22;15969;51.536;11.884;2023-04-03T16:34:52;7.30;80.20
28835;DHT22;15969;51.536;11.884;2023-04-03T16:37:18;7.30;81.30
28835;DHT22;15969;51.536;11.884;2023-04-03T16:39:43;7.20;81.90
28835;DHT22;15969;51.536;11.884;2023-04-03T16:42:09;7.20;82.40
28835;DHT22;15969;51.536;11.884;2023-04-03T16:44:36;7.30;80.50
28835;DHT22;15969;51.536;11.884;2023-04-03T16:47:02;7.10;80.70
28835;DHT22;15969;51.536;11.884;2023-04-03T16:49:28;7.20;82.50
28835;DHT22;15969;51.536;11.884;2023-04-03T16:51:58;7.00;79.20
28835;DHT22;15969;51.536;11.884;2023-04-03T16:54:24;6.80;77.90
28835;DHT22;15969;51.536;11.884;2023-04-03T16:56:50;6.80;78.60
28835;DHT22;15969;51.536;11.884;2023-04-03T16:59:15;6.80;79.30
28835;DHT22;15969;51.536;11.884;2023-04-03T17:01:41;6.70;79.00
28835;DHT22;15969;51.536;11.884;2023-04-03T17:04:07;6.70;77.50
28835;DHT22;15969;51.536;11.884;2023-04-03T17:06:33;6.50;79.20
28835;DHT22;15969;51.536;11.884;2023-04-03T17:08:59;6.60;80.50
28835;DHT22;15969;51.536;11.884;2023-04-03T17:11:24;6.50;81.40
28835;DHT22;15969;51.536;11.884;2023-04-03T17:13:51;6.50;82.10
28835;DHT22;15969;51.536;11.884;2023-04-03T17:16:16;6.60;82.40
28835;DHT22;15969;51.536;11.884;2023-04-03T17:18:43;6.40;80.60